sensor_id;sensor_type;location;lat;lon;timestamp;P1;durP1;ratioP1;P2;durP2;ratioP2
77111;SDS011;66064;50.226;14.344;2024-02-21T00:01:07;16.48;;;10.52;;
77111;SDS011;66064;50.226;14.344;2024-02-21T00:03:45;15.73;;;7.80;;
77111;SDS011;66064;50.226;14.344;2024-02-21T00:06:12;11.32;;;7.50;;
77111;SDS011;66064;50.226;14.344;2024-02-21T00:08:38;9.05;;;7.93;;
77111;SDS011;66064;50.226;14.344;2024-02-21T00:11:04;9.00;;;7.43;;
77111;SDS011;66064;50.226;14.344;2024-02-21T00:13:31;12.73;;;8.73;;
77111;SDS011;66064;50.226;14.344;2024-02-21T00:15:57;20.27;;;9.63;;
77111;SDS011;66064;50.226;14.344;2024-02-21T00:20:51;15.07;;;11.10;;
77111;SDS011;66064;50.226;14.344;2024-02-21T00:23:18;13.65;;;10.63;;
77111;SDS011;66064;50.226;14.344;2024-02-21T00:25:44;13.82;;;8.95;;
77111;SDS011;66064;50.226;14.344;2024-02-21T00:28:10;14.63;;;9.93;;
77111;SDS011;66064;50.226;14.344;2024-02-21T00:30:36;11.68;;;8.57;;
77111;SDS011;66064;50.226;14.344;2024-02-21T00:33:04;13.73;;;9.00;;
77111;SDS011;66064;50.226;14.344;2024-02-21T00:35:30;11.98;;;9.77;;
77111;SDS011;66064;50.226;14.344;2024-02-21T00:37:56;12.07;;;8.43;;
77111;SDS011;66064;50.226;14.344;2024-02-21T00:40:24;14.98;;;9.75;;
77111;SDS011;66064;50.226;14.344;2024-02-21T00:42:51;14.20;;;9.48;;
77111;SDS011;66064;50.226;14.344;2024-02-21T00:45:17;11.02;;;8.70;;
77111;SDS011;66064;50.226;14.344;2024-02-21T00:47:43;19.58;;;10.32;;
77111;SDS011;66064;50.226;14.344;2024-02-21T00:50:09;12.65;;;8.68;;
77111;SDS011;66064;50.226;14.344;2024-02-21T00:52:36;11.48;;;8.88;;
77111;SDS011;66064;50.226;14.344;2024-02-21T00:55:01;15.60;;;9.25;;
77111;SDS011;66064;50.226;14.344;2024-02-21T00:57:28;12.70;;;11.55;;
77111;SDS011;66064;50.226;14.344;2024-02-21T00:59:53;11.38;;;9.32;;
77111;SDS011;66064;50.226;14.344;2024-02-21T01:02:19;15.18;;;10.63;;
77111;SDS011;66064;50.226;14.344;2024-02-21T01:04:45;14.40;;;10.85;;
77111;SDS011;66064;50.226;14.344;2024-02-21T01:07:12;12.43;;;10.02;;
77111;SDS011;66064;50.226;14.344;2024-02-21T01:09:38;13.20;;;8.95;;
77111;SDS011;66064;50.226;14.344;2024-02-21T01:12:04;14.73;;;10.23;;
77111;SDS011;66064;50.226;14.344;2024-02-21T01:14:31;11.32;;;9.77;;
77111;SDS011;66064;50.226;14.344;2024-02-21T01:16:57;10.23;;;9.13;;
77111;SDS011;66064;50.226;14.344;2024-02-21T01:19:22;10.40;;;9.45;;
77111;SDS011;66064;50.226;14.344;2024-02-21T01:21:48;9.00;;;7.22;;
77111;SDS011;66064;50.226;14.344;2024-02-21T01:24:14;14.43;;;8.93;;
77111;SDS011;66064;50.226;14.344;2024-02-21T01:26:40;12.35;;;11.20;;
77111;SDS011;66064;50.226;14.344;2024-02-21T01:29:06;11.02;;;9.82;;
77111;SDS011;66064;50.226;14.344;2024-02-21T01:31:32;12.95;;;10.68;;
77111;SDS011;66064;50.226;14.344;2024-02-21T01:33:58;16.63;;;9.25;;
77111;SDS011;66064;50.226;14.344;2024-02-21T01:36:24;15.45;;;10.07;;
77111;SDS011;66064;50.226;14.344;2024-02-21T01:38:50;13.18;;;9.40;;
77111;SDS011;66064;50.226;14.344;2024-02-21T01:41:17;9.85;;;7.90;;
77111;SDS011;66064;50.226;14.344;2024-02-21T01:43:43;16.45;;;10.68;;
77111;SDS011;66064;50.226;14.344;2024-02-21T01:46:10;12.73;;;9.65;;
77111;SDS011;66064;50.226;14.344;2024-02-21T01:48:37;19.55;;;9.70;;
77111;SDS011;66064;50.226;14.344;2024-02-21T01:51:04;11.23;;;9.18;;
77111;SDS011;66064;50.226;14.344;2024-02-21T01:53:30;9.88;;;7.80;;
77111;SDS011;66064;50.226;14.344;2024-02-21T01:56:00;14.65;;;8.88;;
77111;SDS011;66064;50.226;14.344;2024-02-21T01:58:27;10.55;;;9.45;;
77111;SDS011;66064;50.226;14.344;2024-02-21T02:00:54;13.93;;;10.90;;
77111;SDS011;66064;50.226;14.344;2024-02-21T02:03:22;12.25;;;8.32;;
77111;SDS011;66064;50.226;14.344;2024-02-21T02:05:49;14.23;;;9.55;;
77111;SDS011;66064;50.226;14.344;2024-02-21T02:08:16;17.58;;;11.13;;
77111;SDS011;66064;50.226;14.344;2024-02-21T02:10:44;11.52;;;9.02;;
77111;SDS011;66064;50.226;14.344;2024-02-21T02:13:11;13.73;;;9.43;;
77111;SDS011;66064;50.226;14.344;2024-02-21T02:15:40;16.25;;;9.10;;
77111;SDS011;66064;50.226;14.344;2024-02-21T02:18:07;10.63;;;8.38;;
77111;SDS011;66064;50.226;14.344;2024-02-21T02:20:33;12.13;;;10.05;;
77111;SDS011;66064;50.226;14.344;2024-02-21T02:22:59;11.05;;;8.32;;
77111;SDS011;66064;50.226;14.344;2024-02-21T02:25:33;15.35;;;10.90;;
77111;SDS011;66064;50.226;14.344;2024-02-21T02:27:58;12.80;;;9.10;;
77111;SDS011;66064;50.226;14.344;2024-02-21T02:30:25;12.07;;;9.90;;
77111;SDS011;66064;50.226;14.344;2024-02-21T02:32:51;13.35;;;8.85;;
77111;SDS011;66064;50.226;14.344;2024-02-21T02:35:17;13.50;;;10.38;;
77111;SDS011;66064;50.226;14.344;2024-02-21T02:37:49;23.35;;;20.95;;
77111;SDS011;66064;50.226;14.344;2024-02-21T02:40:16;13.68;;;11.05;;
77111;SDS011;66064;50.226;14.344;2024-02-21T02:42:45;61.78;;;25.77;;
77111;SDS011;66064;50.226;14.344;2024-02-21T02:45:11;15.45;;;10.13;;
77111;SDS011;66064;50.226;14.344;2024-02-21T02:47:39;19.60;;;9.52;;
77111;SDS011;66064;50.226;14.344;2024-02-21T02:50:06;18.05;;;9.23;;
77111;SDS011;66064;50.226;14.344;2024-02-21T02:52:32;19.85;;;10.60;;
77111;SDS011;66064;50.226;14.344;2024-02-21T02:54:58;13.80;;;9.32;;
77111;SDS011;66064;50.226;14.344;2024-02-21T02:57:24;9.75;;;8.57;;
77111;SDS011;66064;50.226;14.344;2024-02-21T02:59:51;10.25;;;9.23;;
77111;SDS011;66064;50.226;14.344;2024-02-21T03:02:17;10.23;;;8.95;;
77111;SDS011;66064;50.226;14.344;2024-02-21T03:04:43;16.48;;;10.05;;
77111;SDS011;66064;50.226;14.344;2024-02-21T03:07:11;13.23;;;8.88;;
77111;SDS011;66064;50.226;14.344;2024-02-21T03:09:38;13.45;;;9.25;;
77111;SDS011;66064;50.226;14.344;2024-02-21T03:12:05;13.25;;;10.10;;
77111;SDS011;66064;50.226;14.344;2024-02-21T03:14:32;11.27;;;10.20;;
77111;SDS011;66064;50.226;14.344;2024-02-21T03:16:58;10.40;;;9.48;;
77111;SDS011;66064;50.226;14.344;2024-02-21T03:19:24;10.07;;;8.55;;
77111;SDS011;66064;50.226;14.344;2024-02-21T03:21:51;11.80;;;9.68;;
77111;SDS011;66064;50.226;14.344;2024-02-21T03:24:19;11.90;;;9.07;;
77111;SDS011;66064;50.226;14.344;2024-02-21T03:26:46;10.88;;;9.50;;
77111;SDS011;66064;50.226;14.344;2024-02-21T03:29:14;15.38;;;10.57;;
77111;SDS011;66064;50.226;14.344;2024-02-21T03:31:41;11.85;;;9.25;;
77111;SDS011;66064;50.226;14.344;2024-02-21T03:34:07;13.40;;;7.63;;
77111;SDS011;66064;50.226;14.344;2024-02-21T03:36:33;13.30;;;8.70;;
77111;SDS011;66064;50.226;14.344;2024-02-21T03:38:59;14.65;;;8.35;;
77111;SDS011;66064;50.226;14.344;2024-02-21T03:41:25;13.95;;;9.85;;
77111;SDS011;66064;50.226;14.344;2024-02-21T03:43:52;13.90;;;9.85;;
77111;SDS011;66064;50.226;14.344;2024-02-21T03:46:18;14.45;;;10.18;;
77111;SDS011;66064;50.226;14.344;2024-02-21T03:48:44;13.13;;;8.82;;
77111;SDS011;66064;50.226;14.344;2024-02-21T03:51:11;11.73;;;8.68;;
77111;SDS011;66064;50.226;14.344;2024-02-21T03:53:37;11.23;;;9.73;;
77111;SDS011;66064;50.226;14.344;2024-02-21T03:56:03;13.77;;;9.10;;
77111;SDS011;66064;50.226;14.344;2024-02-21T03:58:30;10.95;;;9.77;;
77111;SDS011;66064;50.226;14.344;2024-02-21T04:00:56;13.20;;;10.73;;
77111;SDS011;66064;50.226;14.344;2024-02-21T04:03:23;12.35;;;9.60;;
77111;SDS011;66064;50.226;14.344;2024-02-21T04:05:49;13.13;;;10.35;;
77111;SDS011;66064;50.226;14.344;2024-02-21T04:08:15;12.35;;;10.20;;
77111;SDS011;66064;50.226;14.344;2024-02-21T04:10:41;11.25;;;9.45;;
77111;SDS011;66064;50.226;14.344;2024-02-21T04:13:07;11.05;;;8.73;;
77111;SDS011;66064;50.226;14.344;2024-02-21T04:15:33;12.15;;;9.00;;
77111;SDS011;66064;50.226;14.344;2024-02-21T04:17:59;11.85;;;10.85;;
77111;SDS011;66064;50.226;14.344;2024-02-21T04:20:25;15.77;;;8.63;;
77111;SDS011;66064;50.226;14.344;2024-02-21T04:22:52;20.15;;;9.05;;
77111;SDS011;66064;50.226;14.344;2024-02-21T04:25:17;14.55;;;10.50;;
77111;SDS011;66064;50.226;14.344;2024-02-21T04:27:44;14.23;;;10.73;;
77111;SDS011;66064;50.226;14.344;2024-02-21T04:30:10;11.70;;;10.60;;
77111;SDS011;66064;50.226;14.344;2024-02-21T04:32:37;12.73;;;10.55;;
77111;SDS011;66064;50.226;14.344;2024-02-21T04:35:03;15.75;;;11.20;;
77111;SDS011;66064;50.226;14.344;2024-02-21T04:37:29;14.10;;;12.00;;
77111;SDS011;66064;50.226;14.344;2024-02-21T04:39:56;13.50;;;9.40;;
77111;SDS011;66064;50.226;14.344;2024-02-21T04:42:22;16.25;;;11.75;;
77111;SDS011;66064;50.226;14.344;2024-02-21T04:44:48;12.20;;;9.43;;
77111;SDS011;66064;50.226;14.344;2024-02-21T04:47:14;12.23;;;9.55;;
77111;SDS011;66064;50.226;14.344;2024-02-21T04:49:40;13.60;;;10.68;;
77111;SDS011;66064;50.226;14.344;2024-02-21T04:52:06;14.90;;;10.80;;
77111;SDS011;66064;50.226;14.344;2024-02-21T04:54:32;12.77;;;9.85;;
77111;SDS011;66064;50.226;14.344;2024-02-21T04:56:58;11.88;;;9.60;;
77111;SDS011;66064;50.226;14.344;2024-02-21T04:59:24;12.63;;;9.95;;
77111;SDS011;66064;50.226;14.344;2024-02-21T05:01:49;14.25;;;11.55;;
77111;SDS011;66064;50.226;14.344;2024-02-21T05:04:15;15.57;;;9.05;;
77111;SDS011;66064;50.226;14.344;2024-02-21T05:06:41;13.10;;;9.57;;
77111;SDS011;66064;50.226;14.344;2024-02-21T05:09:08;16.33;;;12.00;;
77111;SDS011;66064;50.226;14.344;2024-02-21T05:11:36;13.88;;;10.88;;
77111;SDS011;66064;50.226;14.344;2024-02-21T05:14:03;12.73;;;11.00;;
77111;SDS011;66064;50.226;14.344;2024-02-21T05:16:30;17.55;;;11.73;;
77111;SDS011;66064;50.226;14.344;2024-02-21T05:18:56;12.50;;;10.68;;
77111;SDS011;66064;50.226;14.344;2024-02-21T05:21:23;15.68;;;11.50;;
77111;SDS011;66064;50.226;14.344;2024-02-21T05:23:53;17.73;;;10.10;;
77111;SDS011;66064;50.226;14.344;2024-02-21T05:26:23;10.93;;;9.45;;
77111;SDS011;66064;50.226;14.344;2024-02-21T05:28:50;16.00;;;9.43;;
77111;SDS011;66064;50.226;14.344;2024-02-21T05:31:20;15.13;;;10.77;;
77111;SDS011;66064;50.226;14.344;2024-02-21T05:33:47;22.23;;;13.50;;
77111;SDS011;66064;50.226;14.344;2024-02-21T05:36:13;16.02;;;10.88;;
77111;SDS011;66064;50.226;14.344;2024-02-21T05:38:39;12.20;;;10.52;;
77111;SDS011;66064;50.226;14.344;2024-02-21T05:41:05;16.65;;;11.18;;
77111;SDS011;66064;50.226;14.344;2024-02-21T05:43:31;14.65;;;9.45;;
77111;SDS011;66064;50.226;14.344;2024-02-21T05:45:57;19.02;;;10.95;;
77111;SDS011;66064;50.226;14.344;2024-02-21T05:48:24;13.45;;;11.20;;
77111;SDS011;66064;50.226;14.344;2024-02-21T05:50:50;17.35;;;15.43;;
77111;SDS011;66064;50.226;14.344;2024-02-21T05:53:17;31.38;;;21.10;;
77111;SDS011;66064;50.226;14.344;2024-02-21T05:55:43;36.10;;;16.17;;
77111;SDS011;66064;50.226;14.344;2024-02-21T05:58:10;34.03;;;20.88;;
77111;SDS011;66064;50.226;14.344;2024-02-21T06:00:39;35.00;;;20.52;;
77111;SDS011;66064;50.226;14.344;2024-02-21T06:03:05;47.85;;;19.45;;
77111;SDS011;66064;50.226;14.344;2024-02-21T06:05:36;20.60;;;11.48;;
77111;SDS011;66064;50.226;14.344;2024-02-21T06:08:04;20.33;;;14.13;;
77111;SDS011;66064;50.226;14.344;2024-02-21T06:10:30;16.30;;;10.73;;
77111;SDS011;66064;50.226;14.344;2024-02-21T06:12:56;15.82;;;10.45;;
77111;SDS011;66064;50.226;14.344;2024-02-21T06:15:22;15.25;;;9.98;;
77111;SDS011;66064;50.226;14.344;2024-02-21T06:17:48;18.45;;;10.82;;
77111;SDS011;66064;50.226;14.344;2024-02-21T06:20:16;17.10;;;12.52;;
77111;SDS011;66064;50.226;14.344;2024-02-21T06:22:42;16.05;;;11.05;;
77111;SDS011;66064;50.226;14.344;2024-02-21T06:25:09;15.00;;;11.68;;
77111;SDS011;66064;50.226;14.344;2024-02-21T06:27:35;16.45;;;9.85;;
77111;SDS011;66064;50.226;14.344;2024-02-21T06:30:01;16.17;;;10.10;;
77111;SDS011;66064;50.226;14.344;2024-02-21T06:32:28;12.85;;;9.60;;
77111;SDS011;66064;50.226;14.344;2024-02-21T06:34:54;18.77;;;10.57;;
77111;SDS011;66064;50.226;14.344;2024-02-21T06:37:21;13.48;;;10.75;;
77111;SDS011;66064;50.226;14.344;2024-02-21T06:39:47;15.75;;;11.13;;
77111;SDS011;66064;50.226;14.344;2024-02-21T06:42:13;16.00;;;10.10;;
77111;SDS011;66064;50.226;14.344;2024-02-21T06:44:39;14.48;;;11.52;;
77111;SDS011;66064;50.226;14.344;2024-02-21T06:47:06;13.38;;;11.55;;
77111;SDS011;66064;50.226;14.344;2024-02-21T06:49:33;13.48;;;11.38;;
77111;SDS011;66064;50.226;14.344;2024-02-21T06:52:00;12.63;;;10.40;;
77111;SDS011;66064;50.226;14.344;2024-02-21T06:54:26;17.83;;;11.40;;
77111;SDS011;66064;50.226;14.344;2024-02-21T06:56:52;18.45;;;10.63;;
77111;SDS011;66064;50.226;14.344;2024-02-21T06:59:18;15.95;;;11.13;;
77111;SDS011;66064;50.226;14.344;2024-02-21T07:01:48;12.63;;;8.80;;
77111;SDS011;66064;50.226;14.344;2024-02-21T07:04:14;14.40;;;12.20;;
77111;SDS011;66064;50.226;14.344;2024-02-21T07:06:41;11.13;;;9.85;;
77111;SDS011;66064;50.226;14.344;2024-02-21T07:09:07;13.90;;;9.85;;
77111;SDS011;66064;50.226;14.344;2024-02-21T07:11:33;12.93;;;10.90;;
77111;SDS011;66064;50.226;14.344;2024-02-21T07:13:59;14.90;;;9.68;;
77111;SDS011;66064;50.226;14.344;2024-02-21T07:16:25;16.00;;;9.50;;
77111;SDS011;66064;50.226;14.344;2024-02-21T07:18:52;14.52;;;8.65;;
77111;SDS011;66064;50.226;14.344;2024-02-21T07:21:18;14.68;;;8.98;;
77111;SDS011;66064;50.226;14.344;2024-02-21T07:23:44;11.48;;;9.32;;
77111;SDS011;66064;50.226;14.344;2024-02-21T07:26:10;16.42;;;9.60;;
77111;SDS011;66064;50.226;14.344;2024-02-21T07:28:36;12.95;;;11.68;;
77111;SDS011;66064;50.226;14.344;2024-02-21T07:31:02;13.00;;;9.43;;
77111;SDS011;66064;50.226;14.344;2024-02-21T07:33:28;12.30;;;10.00;;
77111;SDS011;66064;50.226;14.344;2024-02-21T07:35:56;11.40;;;9.70;;
77111;SDS011;66064;50.226;14.344;2024-02-21T07:38:22;10.63;;;9.63;;
77111;SDS011;66064;50.226;14.344;2024-02-21T07:40:48;12.73;;;8.80;;
77111;SDS011;66064;50.226;14.344;2024-02-21T07:43:14;9.73;;;8.45;;
77111;SDS011;66064;50.226;14.344;2024-02-21T07:45:40;13.48;;;9.02;;
77111;SDS011;66064;50.226;14.344;2024-02-21T07:48:06;13.23;;;9.38;;
77111;SDS011;66064;50.226;14.344;2024-02-21T07:50:32;10.70;;;9.15;;
77111;SDS011;66064;50.226;14.344;2024-02-21T07:52:59;14.60;;;8.90;;
77111;SDS011;66064;50.226;14.344;2024-02-21T07:55:26;14.57;;;8.82;;
77111;SDS011;66064;50.226;14.344;2024-02-21T07:57:51;12.73;;;9.32;;
77111;SDS011;66064;50.226;14.344;2024-02-21T08:00:17;12.80;;;10.93;;
77111;SDS011;66064;50.226;14.344;2024-02-21T08:05:14;17.25;;;7.78;;
77111;SDS011;66064;50.226;14.344;2024-02-21T08:07:39;10.48;;;8.13;;
77111;SDS011;66064;50.226;14.344;2024-02-21T08:10:06;13.00;;;10.70;;
77111;SDS011;66064;50.226;14.344;2024-02-21T08:12:35;12.05;;;9.45;;
77111;SDS011;66064;50.226;14.344;2024-02-21T08:15:02;12.85;;;9.32;;
77111;SDS011;66064;50.226;14.344;2024-02-21T08:17:34;12.23;;;8.75;;
77111;SDS011;66064;50.226;14.344;2024-02-21T08:20:00;10.82;;;9.02;;
77111;SDS011;66064;50.226;14.344;2024-02-21T08:22:26;11.60;;;10.40;;
77111;SDS011;66064;50.226;14.344;2024-02-21T08:24:53;15.80;;;8.95;;
77111;SDS011;66064;50.226;14.344;2024-02-21T08:27:20;14.13;;;8.88;;
77111;SDS011;66064;50.226;14.344;2024-02-21T08:29:46;14.18;;;8.57;;
77111;SDS011;66064;50.226;14.344;2024-02-21T08:32:12;12.93;;;8.93;;
77111;SDS011;66064;50.226;14.344;2024-02-21T08:34:38;12.07;;;9.45;;
77111;SDS011;66064;50.226;14.344;2024-02-21T08:37:04;15.52;;;9.70;;
77111;SDS011;66064;50.226;14.344;2024-02-21T08:39:33;13.00;;;10.80;;
77111;SDS011;66064;50.226;14.344;2024-02-21T08:41:58;10.63;;;9.30;;
77111;SDS011;66064;50.226;14.344;2024-02-21T08:44:27;14.48;;;10.27;;
77111;SDS011;66064;50.226;14.344;2024-02-21T08:46:53;15.95;;;9.57;;
77111;SDS011;66064;50.226;14.344;2024-02-21T08:49:20;13.77;;;10.35;;
77111;SDS011;66064;50.226;14.344;2024-02-21T08:51:45;18.00;;;11.25;;
77111;SDS011;66064;50.226;14.344;2024-02-21T08:54:12;12.85;;;10.32;;
77111;SDS011;66064;50.226;14.344;2024-02-21T08:56:37;18.98;;;9.52;;
77111;SDS011;66064;50.226;14.344;2024-02-21T08:59:05;14.05;;;9.70;;
77111;SDS011;66064;50.226;14.344;2024-02-21T09:01:31;13.23;;;11.02;;
77111;SDS011;66064;50.226;14.344;2024-02-21T09:03:57;13.82;;;9.00;;
77111;SDS011;66064;50.226;14.344;2024-02-21T09:06:23;12.45;;;11.43;;
77111;SDS011;66064;50.226;14.344;2024-02-21T09:08:49;12.50;;;10.23;;
77111;SDS011;66064;50.226;14.344;2024-02-21T09:11:15;11.52;;;8.80;;
77111;SDS011;66064;50.226;14.344;2024-02-21T09:13:41;16.42;;;8.70;;
77111;SDS011;66064;50.226;14.344;2024-02-21T09:16:08;13.30;;;9.43;;
77111;SDS011;66064;50.226;14.344;2024-02-21T09:18:35;21.50;;;13.40;;
77111;SDS011;66064;50.226;14.344;2024-02-21T09:21:01;28.38;;;14.35;;
77111;SDS011;66064;50.226;14.344;2024-02-21T09:23:27;20.13;;;10.35;;
77111;SDS011;66064;50.226;14.344;2024-02-21T09:25:57;12.10;;;8.82;;
77111;SDS011;66064;50.226;14.344;2024-02-21T09:28:26;16.58;;;9.68;;
77111;SDS011;66064;50.226;14.344;2024-02-21T09:30:51;14.23;;;9.98;;
77111;SDS011;66064;50.226;14.344;2024-02-21T09:33:18;17.33;;;10.23;;
77111;SDS011;66064;50.226;14.344;2024-02-21T09:35:43;14.20;;;10.43;;
77111;SDS011;66064;50.226;14.344;2024-02-21T09:38:09;15.80;;;10.10;;
77111;SDS011;66064;50.226;14.344;2024-02-21T09:40:35;13.60;;;9.10;;
77111;SDS011;66064;50.226;14.344;2024-02-21T09:43:04;14.18;;;8.70;;
77111;SDS011;66064;50.226;14.344;2024-02-21T09:45:33;13.05;;;9.07;;
77111;SDS011;66064;50.226;14.344;2024-02-21T09:50:56;14.73;;;6.97;;
77111;SDS011;66064;50.226;14.344;2024-02-21T09:53:24;11.02;;;7.57;;
77111;SDS011;66064;50.226;14.344;2024-02-21T09:55:50;13.98;;;7.55;;
77111;SDS011;66064;50.226;14.344;2024-02-21T09:58:17;11.45;;;7.07;;
77111;SDS011;66064;50.226;14.344;2024-02-21T10:00:44;9.80;;;8.35;;
77111;SDS011;66064;50.226;14.344;2024-02-21T10:03:10;10.70;;;7.22;;
77111;SDS011;66064;50.226;14.344;2024-02-21T10:05:36;11.30;;;6.85;;
77111;SDS011;66064;50.226;14.344;2024-02-21T10:08:02;13.48;;;8.40;;
77111;SDS011;66064;50.226;14.344;2024-02-21T10:10:29;12.55;;;7.25;;
77111;SDS011;66064;50.226;14.344;2024-02-21T10:13:07;11.98;;;8.38;;
77111;SDS011;66064;50.226;14.344;2024-02-21T10:15:33;12.98;;;8.02;;
77111;SDS011;66064;50.226;14.344;2024-02-21T10:18:00;11.05;;;9.40;;
77111;SDS011;66064;50.226;14.344;2024-02-21T10:20:28;10.63;;;9.10;;
77111;SDS011;66064;50.226;14.344;2024-02-21T10:23:03;11.48;;;8.43;;
77111;SDS011;66064;50.226;14.344;2024-02-21T10:25:36;11.00;;;7.75;;
77111;SDS011;66064;50.226;14.344;2024-02-21T10:28:14;11.30;;;8.27;;
77111;SDS011;66064;50.226;14.344;2024-02-21T10:30:51;12.60;;;7.93;;
77111;SDS011;66064;50.226;14.344;2024-02-21T10:33:17;13.95;;;6.50;;
77111;SDS011;66064;50.226;14.344;2024-02-21T10:35:53;9.45;;;5.97;;
77111;SDS011;66064;50.226;14.344;2024-02-21T10:38:19;6.68;;;5.22;;
77111;SDS011;66064;50.226;14.344;2024-02-21T10:40:46;6.78;;;6.07;;
77111;SDS011;66064;50.226;14.344;2024-02-21T10:43:12;8.07;;;5.35;;
77111;SDS011;66064;50.226;14.344;2024-02-21T10:45:43;11.40;;;5.72;;
77111;SDS011;66064;50.226;14.344;2024-02-21T10:48:14;8.75;;;5.57;;
77111;SDS011;66064;50.226;14.344;2024-02-21T10:53:41;11.10;;;7.25;;
77111;SDS011;66064;50.226;14.344;2024-02-21T10:58:52;8.90;;;7.47;;
77111;SDS011;66064;50.226;14.344;2024-02-21T11:01:19;11.48;;;6.18;;
77111;SDS011;66064;50.226;14.344;2024-02-21T11:03:47;12.38;;;6.63;;
77111;SDS011;66064;50.226;14.344;2024-02-21T11:06:16;16.52;;;7.40;;
77111;SDS011;66064;50.226;14.344;2024-02-21T11:08:44;13.90;;;7.82;;
77111;SDS011;66064;50.226;14.344;2024-02-21T11:11:11;12.57;;;7.03;;
77111;SDS011;66064;50.226;14.344;2024-02-21T11:13:42;11.90;;;6.95;;
77111;SDS011;66064;50.226;14.344;2024-02-21T11:16:09;11.68;;;8.02;;
77111;SDS011;66064;50.226;14.344;2024-02-21T11:18:37;9.05;;;6.97;;
77111;SDS011;66064;50.226;14.344;2024-02-21T11:21:03;10.43;;;7.47;;
77111;SDS011;66064;50.226;14.344;2024-02-21T11:23:32;11.23;;;10.13;;
77111;SDS011;66064;50.226;14.344;2024-02-21T11:26:07;13.48;;;7.28;;
77111;SDS011;66064;50.226;14.344;2024-02-21T11:28:34;10.70;;;7.20;;
77111;SDS011;66064;50.226;14.344;2024-02-21T11:31:08;9.82;;;6.95;;
77111;SDS011;66064;50.226;14.344;2024-02-21T11:33:42;14.50;;;8.23;;
77111;SDS011;66064;50.226;14.344;2024-02-21T11:36:11;9.68;;;6.82;;
77111;SDS011;66064;50.226;14.344;2024-02-21T11:38:50;8.38;;;6.80;;
77111;SDS011;66064;50.226;14.344;2024-02-21T11:41:17;7.05;;;6.35;;
77111;SDS011;66064;50.226;14.344;2024-02-21T11:43:43;10.52;;;6.10;;
77111;SDS011;66064;50.226;14.344;2024-02-21T11:46:08;6.97;;;6.07;;
77111;SDS011;66064;50.226;14.344;2024-02-21T11:48:34;7.80;;;6.28;;
77111;SDS011;66064;50.226;14.344;2024-02-21T11:51:00;8.73;;;6.93;;
77111;SDS011;66064;50.226;14.344;2024-02-21T11:53:26;7.20;;;5.53;;
77111;SDS011;66064;50.226;14.344;2024-02-21T11:55:56;8.25;;;6.25;;
77111;SDS011;66064;50.226;14.344;2024-02-21T11:58:22;9.73;;;6.22;;
77111;SDS011;66064;50.226;14.344;2024-02-21T12:00:48;6.10;;;5.07;;
77111;SDS011;66064;50.226;14.344;2024-02-21T12:03:14;10.38;;;5.50;;
77111;SDS011;66064;50.226;14.344;2024-02-21T12:05:41;7.97;;;6.13;;
77111;SDS011;66064;50.226;14.344;2024-02-21T12:08:08;8.00;;;5.32;;
77111;SDS011;66064;50.226;14.344;2024-02-21T12:10:34;10.10;;;7.07;;
77111;SDS011;66064;50.226;14.344;2024-02-21T12:13:05;5.60;;;5.05;;
77111;SDS011;66064;50.226;14.344;2024-02-21T12:15:32;11.00;;;5.78;;
77111;SDS011;66064;50.226;14.344;2024-02-21T12:17:58;11.63;;;5.88;;
77111;SDS011;66064;50.226;14.344;2024-02-21T12:20:25;9.32;;;6.50;;
77111;SDS011;66064;50.226;14.344;2024-02-21T12:22:52;11.52;;;5.78;;
77111;SDS011;66064;50.226;14.344;2024-02-21T12:25:19;6.15;;;5.40;;
77111;SDS011;66064;50.226;14.344;2024-02-21T12:27:52;7.90;;;5.55;;
77111;SDS011;66064;50.226;14.344;2024-02-21T12:30:18;9.25;;;5.95;;
77111;SDS011;66064;50.226;14.344;2024-02-21T12:32:45;8.30;;;5.35;;
77111;SDS011;66064;50.226;14.344;2024-02-21T12:35:11;6.97;;;4.93;;
77111;SDS011;66064;50.226;14.344;2024-02-21T12:37:37;8.50;;;5.10;;
77111;SDS011;66064;50.226;14.344;2024-02-21T12:40:06;8.95;;;6.20;;
77111;SDS011;66064;50.226;14.344;2024-02-21T12:42:33;11.38;;;5.72;;
77111;SDS011;66064;50.226;14.344;2024-02-21T12:45:00;8.38;;;5.75;;
77111;SDS011;66064;50.226;14.344;2024-02-21T12:47:28;8.55;;;5.80;;
77111;SDS011;66064;50.226;14.344;2024-02-21T12:49:54;11.38;;;6.95;;
77111;SDS011;66064;50.226;14.344;2024-02-21T12:52:20;7.35;;;5.28;;
77111;SDS011;66064;50.226;14.344;2024-02-21T12:54:46;9.50;;;4.10;;
77111;SDS011;66064;50.226;14.344;2024-02-21T12:57:13;7.75;;;4.82;;
77111;SDS011;66064;50.226;14.344;2024-02-21T12:59:38;46.05;;;26.60;;
77111;SDS011;66064;50.226;14.344;2024-02-21T13:02:04;39.45;;;22.08;;
77111;SDS011;66064;50.226;14.344;2024-02-21T13:04:31;6.57;;;4.90;;
77111;SDS011;66064;50.226;14.344;2024-02-21T13:06:57;7.90;;;4.75;;
77111;SDS011;66064;50.226;14.344;2024-02-21T13:09:23;9.25;;;4.72;;
77111;SDS011;66064;50.226;14.344;2024-02-21T13:11:49;7.90;;;3.65;;
77111;SDS011;66064;50.226;14.344;2024-02-21T13:14:16;7.90;;;4.38;;
77111;SDS011;66064;50.226;14.344;2024-02-21T13:16:42;6.45;;;4.25;;
77111;SDS011;66064;50.226;14.344;2024-02-21T13:19:08;8.27;;;4.90;;
77111;SDS011;66064;50.226;14.344;2024-02-21T13:21:35;6.55;;;4.80;;
77111;SDS011;66064;50.226;14.344;2024-02-21T13:24:01;7.60;;;5.53;;
77111;SDS011;66064;50.226;14.344;2024-02-21T13:26:28;5.50;;;3.92;;
77111;SDS011;66064;50.226;14.344;2024-02-21T13:28:53;8.52;;;5.38;;
77111;SDS011;66064;50.226;14.344;2024-02-21T13:31:20;7.35;;;4.57;;
77111;SDS011;66064;50.226;14.344;2024-02-21T13:33:46;6.07;;;4.18;;
77111;SDS011;66064;50.226;14.344;2024-02-21T13:36:12;14.52;;;11.23;;
77111;SDS011;66064;50.226;14.344;2024-02-21T13:38:38;7.35;;;3.88;;
77111;SDS011;66064;50.226;14.344;2024-02-21T13:41:07;6.35;;;4.32;;
77111;SDS011;66064;50.226;14.344;2024-02-21T13:43:33;5.97;;;4.13;;
77111;SDS011;66064;50.226;14.344;2024-02-21T13:46:00;12.95;;;8.88;;
77111;SDS011;66064;50.226;14.344;2024-02-21T13:51:00;10.73;;;9.27;;
77111;SDS011;66064;50.226;14.344;2024-02-21T13:53:27;8.40;;;7.60;;
77111;SDS011;66064;50.226;14.344;2024-02-21T13:55:54;8.57;;;6.30;;
77111;SDS011;66064;50.226;14.344;2024-02-21T13:58:20;8.80;;;6.88;;
77111;SDS011;66064;50.226;14.344;2024-02-21T14:00:46;10.50;;;9.20;;
77111;SDS011;66064;50.226;14.344;2024-02-21T14:03:12;8.63;;;4.78;;
77111;SDS011;66064;50.226;14.344;2024-02-21T14:05:38;5.40;;;4.32;;
77111;SDS011;66064;50.226;14.344;2024-02-21T14:08:06;10.88;;;6.60;;
77111;SDS011;66064;50.226;14.344;2024-02-21T14:10:33;8.50;;;5.15;;
77111;SDS011;66064;50.226;14.344;2024-02-21T14:12:59;7.97;;;5.55;;
77111;SDS011;66064;50.226;14.344;2024-02-21T14:15:26;9.65;;;8.27;;
77111;SDS011;66064;50.226;14.344;2024-02-21T14:17:51;9.70;;;6.85;;
77111;SDS011;66064;50.226;14.344;2024-02-21T14:20:17;5.70;;;4.35;;
77111;SDS011;66064;50.226;14.344;2024-02-21T14:22:43;9.40;;;7.63;;
77111;SDS011;66064;50.226;14.344;2024-02-21T14:25:09;6.63;;;5.57;;
77111;SDS011;66064;50.226;14.344;2024-02-21T14:27:35;8.63;;;6.35;;
77111;SDS011;66064;50.226;14.344;2024-02-21T14:30:04;8.48;;;7.07;;
77111;SDS011;66064;50.226;14.344;2024-02-21T14:32:30;9.02;;;7.32;;
77111;SDS011;66064;50.226;14.344;2024-02-21T14:34:56;11.73;;;7.90;;